createdAt,value
2022-11-29T00:01:12.718Z,101104.94
2022-11-29T00:04:15.409Z,101121.03
2022-11-29T00:07:17.717Z,101131.94
2022-11-29T00:10:20.366Z,101095.03
2022-11-29T00:13:22.634Z,101121.66
2022-11-29T00:16:25.243Z,101110.81
2022-11-29T00:19:28.098Z,101107.25
2022-11-29T00:22:30.593Z,101085.88
2022-11-29T00:25:32.856Z,101082.69
2022-11-29T00:28:36.629Z,101095.06
2022-11-29T00:31:39.855Z,101103.91
2022-11-29T00:34:42.711Z,101094.13
2022-11-29T00:37:45.225Z,101092.69
2022-11-29T00:40:52.016Z,101084.22
2022-11-29T00:43:54.679Z,101087.13
2022-11-29T00:46:57.210Z,101084.47
2022-11-29T00:49:59.475Z,101067.69
2022-11-29T00:53:01.980Z,101086.12
2022-11-29T00:56:05.523Z,101059.28
2022-11-29T00:59:08.024Z,101082.56
2022-11-29T01:02:10.288Z,101051.22
2022-11-29T01:05:12.898Z,101058.28
2022-11-29T01:08:15.596Z,101056.94
2022-11-29T01:11:24.227Z,101074.72
2022-11-29T01:14:26.529Z,101071.56
2022-11-29T01:17:29.053Z,101052.28
2022-11-29T01:20:31.539Z,101052.53
2022-11-29T01:23:35.539Z,101058.53
2022-11-29T01:26:38.094Z,101056.47
2022-11-29T01:29:40.723Z,101055.78
2022-11-29T01:32:43.005Z,101055.72
2022-11-29T01:35:49.865Z,101057.84
2022-11-29T01:38:52.509Z,101052.97
2022-11-29T01:41:55.075Z,101066.31
2022-11-29T01:45:22.377Z,101052.22
2022-11-29T01:48:30.943Z,101053.94
2022-11-29T01:51:35.924Z,101060.19
2022-11-29T01:54:43.776Z,101071.84
2022-11-29T01:57:46.825Z,101053.63
2022-11-29T02:00:49.541Z,101080.47
2022-11-29T02:03:53.678Z,101075.19
2022-11-29T02:06:56.200Z,101050.19
2022-11-29T02:09:58.758Z,101072.69
2022-11-29T02:13:14.853Z,101072.78
2022-11-29T02:16:55.029Z,101052.06
2022-11-29T02:20:32.960Z,101070.03
2022-11-29T02:23:35.153Z,101079.31
2022-11-29T02:26:49.858Z,101079.78
2022-11-29T02:30:33.792Z,101065.53
2022-11-29T02:33:39.196Z,101078.97
2022-11-29T02:37:12.658Z,101076.53
2022-11-29T02:40:24.309Z,101097.81
2022-11-29T02:44:14.334Z,101096.69
2022-11-29T02:48:08.832Z,101087.06
2022-11-29T02:51:20.105Z,101065.25
2022-11-29T02:54:29.839Z,101086.75
2022-11-29T02:57:38.097Z,101090.56
2022-11-29T03:00:51.587Z,101086.28
2022-11-29T03:04:23.701Z,101088.25
2022-11-29T03:07:46.733Z,101090.25
2022-11-29T03:10:54.729Z,101089.22
2022-11-29T03:14:14.738Z,101090.87
2022-11-29T03:17:22.319Z,101087.69
2022-11-29T03:21:02.662Z,101094.84
2022-11-29T03:24:15.800Z,101098.13
2022-11-29T03:27:28.958Z,101095.41
2022-11-29T03:30:35.131Z,101065.22
2022-11-29T03:33:51.472Z,101092.28
2022-11-29T03:37:01.106Z,101090.87
2022-11-29T03:40:08.354Z,101096.72
2022-11-29T03:43:18.155Z,101104.28
2022-11-29T03:46:26.892Z,101099.09
2022-11-29T03:49:47.853Z,101096.28
2022-11-29T03:53:05.178Z,101101.56
2022-11-29T03:56:35.892Z,101081.03
2022-11-29T04:00:08.116Z,101111.97
2022-11-29T04:03:32.277Z,101105.25
2022-11-29T04:06:52.229Z,101116.56
2022-11-29T04:10:28.432Z,101088.50
2022-11-29T04:13:52.183Z,101114.72
2022-11-29T04:16:57.182Z,101125.13
2022-11-29T04:20:17.742Z,101119.38
2022-11-29T04:23:32.633Z,101121.87
2022-11-29T04:26:40.788Z,101124.50
2022-11-29T04:30:14.155Z,101115.00
2022-11-29T04:33:35.265Z,101129.94
2022-11-29T04:36:59.186Z,101126.13
2022-11-29T04:40:01.610Z,101119.00
2022-11-29T04:43:34.654Z,101121.75
2022-11-29T04:46:58.815Z,101126.41
2022-11-29T04:50:25.675Z,101117.75
2022-11-29T04:53:48.053Z,101121.50
2022-11-29T04:56:51.539Z,101134.03
2022-11-29T05:00:10.018Z,101141.63
2022-11-29T05:03:23.483Z,101121.59
2022-11-29T05:07:06.450Z,101122.81
2022-11-29T05:10:36.929Z,101132.47
2022-11-29T05:13:48.366Z,101148.91
2022-11-29T05:17:08.831Z,101158.38
2022-11-29T05:20:39.379Z,101160.69
2022-11-29T05:24:19.322Z,101156.06
2022-11-29T05:28:02.505Z,101158.16
2022-11-29T05:31:36.412Z,101159.03
2022-11-29T05:35:06.680Z,101160.28
2022-11-29T05:38:31.825Z,101159.84
2022-11-29T05:41:52.354Z,101161.53
2022-11-29T05:45:16.988Z,101160.22
2022-11-29T05:48:32.609Z,101163.47
2022-11-29T05:51:45.975Z,101156.66
2022-11-29T05:55:09.955Z,101166.09
2022-11-29T05:58:40.846Z,101164.12
2022-11-29T06:01:55.933Z,101162.84
2022-11-29T06:05:19.933Z,101166.00
2022-11-29T06:08:44.890Z,101171.91
2022-11-29T06:12:02.449Z,101178.19
2022-11-29T06:15:38.061Z,101152.22
2022-11-29T06:18:59.269Z,101159.97
2022-11-29T06:22:08.131Z,101185.84
2022-11-29T06:25:48.449Z,101182.16
2022-11-29T06:29:06.616Z,101187.69
2022-11-29T06:32:26.192Z,101184.94
2022-11-29T06:35:50.264Z,101186.03
2022-11-29T06:38:53.000Z,101191.69
2022-11-29T06:41:55.320Z,101193.00
2022-11-29T06:44:57.957Z,101174.38
2022-11-29T06:48:04.961Z,101200.38
2022-11-29T06:51:19.711Z,101193.56
2022-11-29T06:54:47.504Z,101173.56
2022-11-29T06:57:58.222Z,101193.19
2022-11-29T07:01:07.186Z,101193.81
2022-11-29T07:04:18.619Z,101203.72
2022-11-29T07:07:22.769Z,101199.41
2022-11-29T07:10:26.882Z,101181.72
2022-11-29T07:13:29.457Z,101205.22
2022-11-29T07:17:04.035Z,101197.28
2022-11-29T07:20:27.061Z,101198.50
2022-11-29T07:23:53.092Z,101197.94
2022-11-29T07:27:02.500Z,101185.53
2022-11-29T07:30:05.274Z,101200.94
2022-11-29T07:33:28.815Z,101199.75
2022-11-29T07:36:49.462Z,101204.78
2022-11-29T07:40:03.090Z,101203.06
2022-11-29T07:43:18.402Z,101186.78
2022-11-29T07:46:20.702Z,101217.00
2022-11-29T07:49:23.283Z,101213.34
2022-11-29T07:52:25.554Z,101217.00
2022-11-29T07:55:29.749Z,101196.81
2022-11-29T07:58:32.335Z,101200.22
2022-11-29T08:01:34.943Z,101219.06
2022-11-29T08:04:46.879Z,101194.62
2022-11-29T08:07:49.565Z,101221.56
2022-11-29T08:10:52.189Z,101224.97
2022-11-29T08:13:58.404Z,101220.88
2022-11-29T08:17:00.976Z,101215.41
2022-11-29T08:20:04.489Z,101222.81
2022-11-29T08:23:07.722Z,101192.16
2022-11-29T08:26:10.038Z,101209.78
2022-11-29T08:29:12.980Z,101206.47
2022-11-29T08:32:15.372Z,101212.84
2022-11-29T08:35:19.732Z,101213.34
2022-11-29T08:38:22.557Z,101218.12
2022-11-29T08:41:25.150Z,101217.78
2022-11-29T08:44:27.632Z,101197.53
2022-11-29T08:47:35.797Z,101220.94
2022-11-29T08:50:38.161Z,101202.84
2022-11-29T08:53:44.603Z,101221.09
2022-11-29T08:57:23.510Z,101194.97
2022-11-29T09:00:12.626Z,101219.94
2022-11-29T09:03:33.637Z,101219.25
2022-11-29T09:06:43.114Z,101227.09
2022-11-29T09:09:45.421Z,101223.22
2022-11-29T09:12:49.663Z,101208.56
2022-11-29T09:15:51.977Z,101219.69
2022-11-29T09:18:56.043Z,101218.75
2022-11-29T09:21:58.280Z,101191.31
2022-11-29T09:25:00.851Z,101193.94
2022-11-29T09:28:03.486Z,101211.56
2022-11-29T09:31:11.261Z,101209.84
2022-11-29T09:34:14.878Z,101207.16
2022-11-29T09:37:17.443Z,101202.22
2022-11-29T09:40:22.844Z,101184.69
2022-11-29T09:44:00.720Z,101203.16
2022-11-29T09:47:39.744Z,101203.06
2022-11-29T09:50:54.116Z,101204.75
2022-11-29T09:54:05.439Z,101184.72
2022-11-29T09:57:10.785Z,101203.88
2022-11-29T10:00:20.057Z,101200.47
2022-11-29T10:03:36.384Z,101175.44
2022-11-29T10:07:00.391Z,101174.38
2022-11-29T10:10:26.121Z,101190.13
2022-11-29T10:13:33.439Z,101190.75
2022-11-29T10:16:58.751Z,101180.66
2022-11-29T10:20:21.672Z,101177.09
2022-11-29T10:23:29.326Z,101145.78
2022-11-29T10:26:35.122Z,101172.72
2022-11-29T10:29:38.640Z,101172.13
2022-11-29T10:32:43.528Z,101181.66
2022-11-29T10:35:47.778Z,101170.13
2022-11-29T10:38:52.322Z,101171.50
2022-11-29T10:41:57.713Z,101169.94
2022-11-29T10:45:00.409Z,101156.81
2022-11-29T10:48:15.879Z,101160.03
2022-11-29T10:51:18.799Z,101164.44
2022-11-29T10:54:41.841Z,101151.84
2022-11-29T10:58:16.095Z,101153.97
2022-11-29T11:01:18.767Z,101158.41
2022-11-29T11:04:44.720Z,101156.78
2022-11-29T11:07:57.422Z,101159.84
2022-11-29T11:11:02.104Z,101156.59
2022-11-29T11:14:17.169Z,101148.19
2022-11-29T11:17:32.903Z,101135.06
2022-11-29T11:20:42.275Z,101159.34
2022-11-29T11:24:04.452Z,101141.09
2022-11-29T11:27:07.198Z,101155.56
2022-11-29T11:30:22.550Z,101142.19
2022-11-29T11:33:26.561Z,101146.88
2022-11-29T11:36:28.960Z,101148.09
2022-11-29T11:39:32.273Z,101123.84
2022-11-29T11:42:41.039Z,101150.53
2022-11-29T11:45:53.165Z,101142.09
2022-11-29T11:48:55.580Z,101136.06
2022-11-29T11:52:00.393Z,101152.91
2022-11-29T11:55:07.603Z,101149.63
2022-11-29T11:58:12.900Z,101134.09
2022-11-29T12:01:16.986Z,101144.94
2022-11-29T12:04:34.060Z,101143.53
2022-11-29T12:08:07.260Z,101151.25
2022-11-29T12:11:11.839Z,101149.41
2022-11-29T12:14:28.227Z,101144.16
2022-11-29T12:17:40.012Z,101122.56
2022-11-29T12:21:03.799Z,101147.97
2022-11-29T12:24:24.647Z,101141.41
2022-11-29T12:27:33.032Z,101148.66
2022-11-29T12:30:36.012Z,101125.53
2022-11-29T12:33:47.380Z,101123.78
2022-11-29T12:37:02.561Z,101142.16
2022-11-29T12:40:32.613Z,101137.12
2022-11-29T12:44:04.036Z,101110.91
2022-11-29T12:47:37.087Z,101132.31
2022-11-29T12:50:45.952Z,101130.56
2022-11-29T12:53:54.227Z,101128.56
2022-11-29T12:57:23.958Z,101132.44
2022-11-29T13:00:31.571Z,101118.97
2022-11-29T13:03:47.610Z,101125.88
2022-11-29T13:06:59.537Z,101125.06
2022-11-29T13:10:20.315Z,101127.41
2022-11-29T13:13:42.742Z,101132.72
2022-11-29T13:16:56.806Z,101132.97
2022-11-29T13:20:16.486Z,101132.13
2022-11-29T13:23:45.688Z,101131.87
2022-11-29T13:26:49.772Z,101128.94
2022-11-29T13:29:53.810Z,101132.66
2022-11-29T13:33:05.101Z,101128.50
2022-11-29T13:36:37.194Z,101129.91
2022-11-29T13:39:48.420Z,101127.97
2022-11-29T13:43:05.735Z,101124.84
2022-11-29T13:46:16.385Z,101123.19
2022-11-29T13:49:42.765Z,101101.84
2022-11-29T13:52:47.239Z,101130.34
2022-11-29T13:56:01.398Z,101130.28
2022-11-29T13:59:08.777Z,101127.41
2022-11-29T14:02:29.912Z,101122.94
2022-11-29T14:05:39.863Z,101123.94
2022-11-29T14:12:48.895Z,101111.37
2022-11-29T14:15:58.629Z,101132.66
2022-11-29T14:19:09.282Z,101132.66
2022-11-29T14:22:19.469Z,101108.00
2022-11-29T14:28:46.971Z,101125.13
2022-11-29T14:31:51.822Z,101127.41
2022-11-29T14:35:12.490Z,101101.78
2022-11-29T14:38:39.198Z,101123.38
2022-11-29T14:42:19.130Z,101127.16
2022-11-29T14:45:31.127Z,101123.00
2022-11-29T14:48:34.343Z,101120.63
2022-11-29T14:51:37.470Z,101122.53
2022-11-29T14:54:59.272Z,101125.41
2022-11-29T14:58:05.952Z,101123.72
2022-11-29T15:01:10.869Z,101100.19
2022-11-29T15:04:13.920Z,101127.22
2022-11-29T15:07:24.710Z,101106.66
2022-11-29T15:10:31.595Z,101107.94
2022-11-29T15:13:36.567Z,101124.94
2022-11-29T15:16:56.346Z,101126.62
2022-11-29T15:19:58.522Z,101135.34
2022-11-29T15:23:09.752Z,101129.38
2022-11-29T15:26:20.599Z,101126.16
2022-11-29T15:29:23.613Z,101122.94
2022-11-29T15:32:32.786Z,101112.28
2022-11-29T15:35:36.756Z,101107.72
2022-11-29T15:38:45.370Z,101125.09
2022-11-29T15:41:47.968Z,101134.69
2022-11-29T15:44:52.943Z,101126.62
2022-11-29T15:48:10.310Z,101133.19
2022-11-29T15:51:30.406Z,101101.37
2022-11-29T15:54:57.027Z,101106.50
2022-11-29T15:58:07.031Z,101106.38
2022-11-29T16:01:19.274Z,101098.59
2022-11-29T16:04:24.623Z,101112.00
2022-11-29T16:07:32.388Z,101126.72
2022-11-29T16:10:40.615Z,101134.94
2022-11-29T16:14:16.673Z,101125.16
2022-11-29T16:17:20.990Z,101124.59
2022-11-29T16:20:25.863Z,101135.94
2022-11-29T16:23:34.114Z,101128.41
2022-11-29T16:26:44.082Z,101142.94
2022-11-29T16:29:47.521Z,101123.75
2022-11-29T16:32:59.469Z,101126.50
2022-11-29T16:36:28.805Z,101130.34
2022-11-29T16:39:31.586Z,101147.72
2022-11-29T16:42:34.965Z,101151.69
2022-11-29T16:45:41.712Z,101155.97
2022-11-29T16:48:44.373Z,101142.28
2022-11-29T16:51:48.365Z,101164.34
2022-11-29T16:54:51.800Z,101171.66
2022-11-29T16:57:54.164Z,101165.66
2022-11-29T17:00:56.775Z,101147.97
2022-11-29T17:04:00.536Z,101153.09
2022-11-29T17:07:05.823Z,101178.66
2022-11-29T17:10:13.415Z,101169.88
2022-11-29T17:13:16.053Z,101152.78
2022-11-29T17:16:21.261Z,101179.03
2022-11-29T17:19:24.520Z,101180.56
2022-11-29T17:22:26.846Z,101183.22
2022-11-29T17:25:29.432Z,101194.72
2022-11-29T17:28:31.755Z,101192.34
2022-11-29T17:31:34.433Z,101187.09
2022-11-29T17:34:37.270Z,101182.87
2022-11-29T17:37:39.862Z,101172.84
2022-11-29T17:40:42.193Z,101191.91
2022-11-29T17:43:44.813Z,101191.41
2022-11-29T17:46:47.001Z,101184.06
2022-11-29T17:49:49.562Z,101171.34
2022-11-29T17:52:51.843Z,101177.66
2022-11-29T17:55:54.408Z,101159.13
2022-11-29T17:58:59.071Z,101186.09
2022-11-29T18:02:03.923Z,101171.72
2022-11-29T18:05:07.137Z,101182.31
2022-11-29T18:08:09.517Z,101189.87
2022-11-29T18:11:13.348Z,101182.72
2022-11-29T18:14:23.787Z,101188.66
2022-11-29T18:17:26.718Z,101187.75
2022-11-29T18:20:28.916Z,101155.91
2022-11-29T18:23:33.841Z,101175.56
2022-11-29T18:26:37.379Z,101182.75
2022-11-29T18:29:40.000Z,101192.75
2022-11-29T18:32:42.231Z,101191.72
2022-11-29T18:35:44.784Z,101190.00
2022-11-29T18:38:48.167Z,101194.09
2022-11-29T18:41:51.181Z,101196.69
2022-11-29T18:44:58.638Z,101203.63
2022-11-29T18:48:01.647Z,101206.63
2022-11-29T18:51:10.245Z,101192.50
2022-11-29T18:54:17.594Z,101198.59
2022-11-29T18:57:19.883Z,101202.09
2022-11-29T19:00:22.653Z,101188.16
2022-11-29T19:03:24.945Z,101202.53
2022-11-29T19:06:35.582Z,101187.94
2022-11-29T19:09:41.380Z,101183.44
2022-11-29T19:12:44.032Z,101206.00
2022-11-29T19:15:55.976Z,101202.47
2022-11-29T19:18:59.713Z,101186.91
2022-11-29T19:22:02.548Z,101206.87
2022-11-29T19:25:06.025Z,101204.25
2022-11-29T19:28:13.897Z,101201.25
2022-11-29T19:31:19.272Z,101199.72
2022-11-29T19:34:23.599Z,101208.22
2022-11-29T19:37:26.195Z,101187.81
2022-11-29T19:40:28.521Z,101189.03
2022-11-29T19:43:31.616Z,101189.50
2022-11-29T19:46:40.071Z,101208.09
2022-11-29T19:49:46.582Z,101207.50
2022-11-29T19:52:49.403Z,101210.37
2022-11-29T19:55:52.173Z,101200.94
2022-11-29T19:58:55.342Z,101202.00
2022-11-29T20:01:58.161Z,101203.75
2022-11-29T20:05:01.379Z,101209.03
2022-11-29T20:08:03.882Z,101196.34
2022-11-29T20:11:08.047Z,101191.72
2022-11-29T20:14:12.051Z,101202.72
2022-11-29T20:17:14.727Z,101198.06
2022-11-29T20:20:17.090Z,101201.50
2022-11-29T20:23:19.783Z,101194.97
2022-11-29T20:26:25.422Z,101191.00
2022-11-29T20:29:30.997Z,101188.38
2022-11-29T20:32:34.976Z,101176.37
2022-11-29T20:35:38.332Z,101191.59
2022-11-29T20:38:48.781Z,101176.84
2022-11-29T20:42:18.843Z,101197.41
2022-11-29T20:45:24.266Z,101185.50
2022-11-29T20:48:28.875Z,101200.31
2022-11-29T20:51:42.978Z,101187.19
2022-11-29T20:54:45.570Z,101194.72
2022-11-29T20:57:48.039Z,101164.28
2022-11-29T21:00:50.638Z,101187.75
2022-11-29T21:03:53.266Z,101163.59
2022-11-29T21:06:55.963Z,101167.19
2022-11-29T21:10:01.405Z,101187.75
2022-11-29T21:13:06.043Z,101196.00
2022-11-29T21:16:11.117Z,101164.69
2022-11-29T21:19:21.320Z,101186.72
2022-11-29T21:22:42.706Z,101172.47
2022-11-29T21:25:55.018Z,101190.81
2022-11-29T21:29:00.466Z,101192.00
2022-11-29T21:32:03.624Z,101193.44
2022-11-29T21:35:07.071Z,101195.94
2022-11-29T21:38:20.114Z,101194.53
2022-11-29T21:41:23.740Z,101197.03
2022-11-29T21:44:27.706Z,101196.06
2022-11-29T21:47:30.577Z,101200.41
2022-11-29T21:50:33.100Z,101178.94
2022-11-29T21:53:37.082Z,101183.72
2022-11-29T21:56:39.876Z,101180.16
2022-11-29T21:59:42.622Z,101177.28
2022-11-29T22:02:47.947Z,101204.47
2022-11-29T22:05:52.647Z,101191.78
2022-11-29T22:08:55.016Z,101202.06
2022-11-29T22:11:59.058Z,101192.53
2022-11-29T22:15:01.384Z,101190.72
2022-11-29T22:18:04.511Z,101189.78
2022-11-29T22:21:07.455Z,101203.06
2022-11-29T22:24:11.463Z,101200.91
2022-11-29T22:27:13.778Z,101193.13
2022-11-29T22:30:16.815Z,101195.66
2022-11-29T22:33:19.064Z,101200.31
2022-11-29T22:36:21.894Z,101189.19
2022-11-29T22:39:24.306Z,101197.66
2022-11-29T22:42:27.238Z,101168.69
2022-11-29T22:45:29.545Z,101195.03
2022-11-29T22:48:38.161Z,101188.09
2022-11-29T22:51:41.598Z,101185.22
2022-11-29T22:54:44.753Z,101176.13
2022-11-29T22:57:47.773Z,101180.09
2022-11-29T23:00:50.307Z,101175.44
2022-11-29T23:04:00.970Z,101183.09
2022-11-29T23:07:03.540Z,101157.56
2022-11-29T23:10:06.525Z,101157.94
2022-11-29T23:13:09.080Z,101173.38
2022-11-29T23:16:14.264Z,101169.22
2022-11-29T23:19:17.378Z,101159.50
2022-11-29T23:22:19.637Z,101153.88
2022-11-29T23:25:22.371Z,101158.22
2022-11-29T23:28:25.622Z,101147.41
2022-11-29T23:31:28.755Z,101140.25
2022-11-29T23:34:31.235Z,101142.16
2022-11-29T23:37:33.726Z,101140.38
2022-11-29T23:40:35.969Z,101138.09
2022-11-29T23:43:40.656Z,101158.31
2022-11-29T23:46:42.962Z,101164.06
2022-11-29T23:49:45.581Z,101160.84
2022-11-29T23:52:53.891Z,101166.09
2022-11-29T23:55:58.417Z,101161.81
2022-11-29T23:59:01.379Z,101166.22
